Terminal Aerodrome Forecast
Issued by NWS

Home | Current Version | Previous Version | Text Only | Print | Product List | Glossary On
Versions: 1 2 3 4 5 6 7 8 9 10 11 12 13 14 15 16 17 18 19 20 21 22 23 24 25 26 27 28 29 30 31 32
000
FTUS43 KLOT 020300 AAC
TAFDPA
TAF AMD
KDPA 020317Z 0203/0224 34010G15KT P6SM VCSH SCT040 OVC200
     FM020430 VRB04KT P6SM BKN200
     FM020700 00000KT 4SM BR BCFG SCT200
     FM021600 01005KT P6SM SCT050=

USA.gov is the U.S. government's official web portal to all federal, state and local government web resources and services.